sensor_id;sensor_type;location;lat;lon;timestamp;temperature;humidity
24772;DHT22;12870;52.274;9.754;2024-01-27T00:01:22;5.90;99.90
24772;DHT22;12870;52.274;9.754;2024-01-27T00:03:47;5.90;99.90
24772;DHT22;12870;52.274;9.754;2024-01-27T00:06:13;5.90;99.90
24772;DHT22;12870;52.274;9.754;2024-01-27T00:08:39;5.90;99.90
24772;DHT22;12870;52.274;9.754;2024-01-27T00:11:04;5.90;99.90
24772;DHT22;12870;52.274;9.754;2024-01-27T00:13:30;5.90;99.90
24772;DHT22;12870;52.274;9.754;2024-01-27T00:15:55;6.00;99.90
24772;DHT22;12870;52.274;9.754;2024-01-27T00:18:21;6.00;99.90
24772;DHT22;12870;52.274;9.754;2024-01-27T00:20:46;6.00;99.90
24772;DHT22;12870;52.274;9.754;2024-01-27T00:23:12;6.00;99.90
24772;DHT22;12870;52.274;9.754;2024-01-27T00:25:37;6.10;99.90
24772;DHT22;12870;52.274;9.754;2024-01-27T00:28:03;6.00;99.90
24772;DHT22;12870;52.274;9.754;2024-01-27T00:30:29;6.00;99.90
24772;DHT22;12870;52.274;9.754;2024-01-27T00:32:54;6.00;99.90
24772;DHT22;12870;52.274;9.754;2024-01-27T00:35:20;6.10;99.90
24772;DHT22;12870;52.274;9.754;2024-01-27T00:37:46;6.10;99.90
24772;DHT22;12870;52.274;9.754;2024-01-27T00:40:11;6.10;99.90
24772;DHT22;12870;52.274;9.754;2024-01-27T00:42:37;6.00;99.90
24772;DHT22;12870;52.274;9.754;2024-01-27T00:45:07;6.00;99.90
24772;DHT22;12870;52.274;9.754;2024-01-27T00:47:32;6.00;99.90
24772;DHT22;12870;52.274;9.754;2024-01-27T00:49:58;6.00;99.90
24772;DHT22;12870;52.274;9.754;2024-01-27T00:52:23;6.00;99.90
24772;DHT22;12870;52.274;9.754;2024-01-27T00:54:49;6.00;99.90
24772;DHT22;12870;52.274;9.754;2024-01-27T00:57:16;6.10;99.90
24772;DHT22;12870;52.274;9.754;2024-01-27T00:59:41;6.10;99.90
24772;DHT22;12870;52.274;9.754;2024-01-27T01:02:07;6.00;99.90
24772;DHT22;12870;52.274;9.754;2024-01-27T01:04:33;6.00;99.90
24772;DHT22;12870;52.274;9.754;2024-01-27T01:06:59;5.90;99.90
24772;DHT22;12870;52.274;9.754;2024-01-27T01:09:24;6.00;99.90
24772;DHT22;12870;52.274;9.754;2024-01-27T01:11:50;5.90;99.90
24772;DHT22;12870;52.274;9.754;2024-01-27T01:14:16;5.80;99.90
24772;DHT22;12870;52.274;9.754;2024-01-27T01:16:41;5.80;99.90
24772;DHT22;12870;52.274;9.754;2024-01-27T01:19:07;5.60;99.90
24772;DHT22;12870;52.274;9.754;2024-01-27T01:21:33;5.60;99.90
24772;DHT22;12870;52.274;9.754;2024-01-27T01:23:59;5.60;99.90
24772;DHT22;12870;52.274;9.754;2024-01-27T01:26:25;5.50;99.90
24772;DHT22;12870;52.274;9.754;2024-01-27T01:28:51;5.50;99.90
24772;DHT22;12870;52.274;9.754;2024-01-27T01:31:16;5.40;99.90
24772;DHT22;12870;52.274;9.754;2024-01-27T01:33:43;5.40;99.90
24772;DHT22;12870;52.274;9.754;2024-01-27T01:36:08;5.40;99.90
24772;DHT22;12870;52.274;9.754;2024-01-27T01:38:34;5.30;99.90
24772;DHT22;12870;52.274;9.754;2024-01-27T01:40:59;5.40;99.90
24772;DHT22;12870;52.274;9.754;2024-01-27T01:43:25;5.30;99.90
24772;DHT22;12870;52.274;9.754;2024-01-27T01:45:51;5.30;99.90
24772;DHT22;12870;52.274;9.754;2024-01-27T01:48:20;5.40;99.90
24772;DHT22;12870;52.274;9.754;2024-01-27T01:50:46;5.30;99.90
24772;DHT22;12870;52.274;9.754;2024-01-27T01:53:12;5.40;99.90
24772;DHT22;12870;52.274;9.754;2024-01-27T01:55:39;5.30;99.90
24772;DHT22;12870;52.274;9.754;2024-01-27T01:58:05;5.30;99.90
24772;DHT22;12870;52.274;9.754;2024-01-27T02:00:31;5.40;99.90
24772;DHT22;12870;52.274;9.754;2024-01-27T02:02:57;5.40;99.90
24772;DHT22;12870;52.274;9.754;2024-01-27T02:05:22;5.40;99.90
24772;DHT22;12870;52.274;9.754;2024-01-27T02:07:48;5.40;99.90
24772;DHT22;12870;52.274;9.754;2024-01-27T02:10:15;5.30;99.90
24772;DHT22;12870;52.274;9.754;2024-01-27T02:12:42;5.30;99.90
24772;DHT22;12870;52.274;9.754;2024-01-27T02:15:11;5.20;99.90
24772;DHT22;12870;52.274;9.754;2024-01-27T02:17:38;5.30;99.90
24772;DHT22;12870;52.274;9.754;2024-01-27T02:20:05;5.40;99.90
24772;DHT22;12870;52.274;9.754;2024-01-27T02:22:32;5.40;99.90
24772;DHT22;12870;52.274;9.754;2024-01-27T02:24:58;5.40;99.90
24772;DHT22;12870;52.274;9.754;2024-01-27T02:27:24;5.40;99.90
24772;DHT22;12870;52.274;9.754;2024-01-27T02:29:49;5.40;99.90
24772;DHT22;12870;52.274;9.754;2024-01-27T02:32:15;5.30;99.90
24772;DHT22;12870;52.274;9.754;2024-01-27T02:34:41;5.30;99.90
24772;DHT22;12870;52.274;9.754;2024-01-27T02:37:06;5.30;99.90
24772;DHT22;12870;52.274;9.754;2024-01-27T02:39:32;5.20;99.90
24772;DHT22;12870;52.274;9.754;2024-01-27T02:41:57;5.30;99.90
24772;DHT22;12870;52.274;9.754;2024-01-27T02:44:23;5.30;99.90
24772;DHT22;12870;52.274;9.754;2024-01-27T02:46:48;5.30;99.90
24772;DHT22;12870;52.274;9.754;2024-01-27T02:49:14;5.30;99.90
24772;DHT22;12870;52.274;9.754;2024-01-27T02:51:39;5.30;99.90
24772;DHT22;12870;52.274;9.754;2024-01-27T02:54:05;5.20;99.90
24772;DHT22;12870;52.274;9.754;2024-01-27T02:56:30;5.30;99.90
24772;DHT22;12870;52.274;9.754;2024-01-27T02:58:56;5.30;99.90
24772;DHT22;12870;52.274;9.754;2024-01-27T03:01:21;5.30;99.90
24772;DHT22;12870;52.274;9.754;2024-01-27T03:03:47;5.30;99.90
24772;DHT22;12870;52.274;9.754;2024-01-27T03:06:12;5.30;99.90
24772;DHT22;12870;52.274;9.754;2024-01-27T03:08:38;5.20;99.90
24772;DHT22;12870;52.274;9.754;2024-01-27T03:11:04;5.10;99.90
24772;DHT22;12870;52.274;9.754;2024-01-27T03:13:29;5.20;99.90
24772;DHT22;12870;52.274;9.754;2024-01-27T03:15:55;5.20;99.90
24772;DHT22;12870;52.274;9.754;2024-01-27T03:18:21;5.20;99.90
24772;DHT22;12870;52.274;9.754;2024-01-27T03:20:47;5.20;99.90
24772;DHT22;12870;52.274;9.754;2024-01-27T03:23:12;5.30;99.90
24772;DHT22;12870;52.274;9.754;2024-01-27T03:25:38;5.30;99.90
24772;DHT22;12870;52.274;9.754;2024-01-27T03:28:04;5.20;99.90
24772;DHT22;12870;52.274;9.754;2024-01-27T03:30:29;5.30;99.90
24772;DHT22;12870;52.274;9.754;2024-01-27T03:32:55;5.20;99.90
24772;DHT22;12870;52.274;9.754;2024-01-27T03:35:20;5.00;99.90
24772;DHT22;12870;52.274;9.754;2024-01-27T03:37:46;5.00;99.90
24772;DHT22;12870;52.274;9.754;2024-01-27T03:40:12;5.10;99.90
24772;DHT22;12870;52.274;9.754;2024-01-27T03:42:37;5.10;99.90
24772;DHT22;12870;52.274;9.754;2024-01-27T03:45:03;5.10;99.90
24772;DHT22;12870;52.274;9.754;2024-01-27T03:47:28;5.10;99.90
24772;DHT22;12870;52.274;9.754;2024-01-27T03:49:54;5.10;99.90
24772;DHT22;12870;52.274;9.754;2024-01-27T03:52:20;5.10;99.90
24772;DHT22;12870;52.274;9.754;2024-01-27T03:54:45;5.10;99.90
24772;DHT22;12870;52.274;9.754;2024-01-27T03:57:11;5.20;99.90
24772;DHT22;12870;52.274;9.754;2024-01-27T03:59:36;5.20;99.90
24772;DHT22;12870;52.274;9.754;2024-01-27T04:02:02;5.20;99.90
24772;DHT22;12870;52.274;9.754;2024-01-27T04:04:27;5.20;99.90
24772;DHT22;12870;52.274;9.754;2024-01-27T04:06:53;5.20;99.90
24772;DHT22;12870;52.274;9.754;2024-01-27T04:09:19;5.20;99.90
24772;DHT22;12870;52.274;9.754;2024-01-27T04:11:44;5.20;99.90
24772;DHT22;12870;52.274;9.754;2024-01-27T04:14:10;5.20;99.90
24772;DHT22;12870;52.274;9.754;2024-01-27T04:16:35;5.20;99.90
24772;DHT22;12870;52.274;9.754;2024-01-27T04:19:02;5.20;99.90
24772;DHT22;12870;52.274;9.754;2024-01-27T04:21:27;5.20;99.90
24772;DHT22;12870;52.274;9.754;2024-01-27T04:23:53;5.20;99.90
24772;DHT22;12870;52.274;9.754;2024-01-27T04:26:18;5.20;99.90
24772;DHT22;12870;52.274;9.754;2024-01-27T04:28:44;5.10;99.90
24772;DHT22;12870;52.274;9.754;2024-01-27T04:31:10;5.20;99.90
24772;DHT22;12870;52.274;9.754;2024-01-27T04:33:36;5.20;99.90
24772;DHT22;12870;52.274;9.754;2024-01-27T04:36:01;5.20;99.90
24772;DHT22;12870;52.274;9.754;2024-01-27T04:38:27;5.10;99.90
24772;DHT22;12870;52.274;9.754;2024-01-27T04:40:52;5.10;99.90
24772;DHT22;12870;52.274;9.754;2024-01-27T04:43:18;5.10;99.90
24772;DHT22;12870;52.274;9.754;2024-01-27T04:45:47;5.00;99.90
24772;DHT22;12870;52.274;9.754;2024-01-27T04:48:12;5.00;99.90
24772;DHT22;12870;52.274;9.754;2024-01-27T04:50:38;4.90;99.90
24772;DHT22;12870;52.274;9.754;2024-01-27T04:53:04;5.00;99.90
24772;DHT22;12870;52.274;9.754;2024-01-27T04:55:29;5.00;99.90
24772;DHT22;12870;52.274;9.754;2024-01-27T04:57:55;5.00;99.90
24772;DHT22;12870;52.274;9.754;2024-01-27T05:00:20;4.90;99.90
24772;DHT22;12870;52.274;9.754;2024-01-27T05:02:46;4.90;99.90
24772;DHT22;12870;52.274;9.754;2024-01-27T05:05:12;4.90;99.90
24772;DHT22;12870;52.274;9.754;2024-01-27T05:07:40;4.90;99.90
24772;DHT22;12870;52.274;9.754;2024-01-27T05:10:06;4.90;99.90
24772;DHT22;12870;52.274;9.754;2024-01-27T05:12:35;5.00;99.90
24772;DHT22;12870;52.274;9.754;2024-01-27T05:15:01;5.10;99.90
24772;DHT22;12870;52.274;9.754;2024-01-27T05:17:26;5.10;99.90
24772;DHT22;12870;52.274;9.754;2024-01-27T05:19:52;5.00;99.90
24772;DHT22;12870;52.274;9.754;2024-01-27T05:22:17;5.00;99.90
24772;DHT22;12870;52.274;9.754;2024-01-27T05:24:43;5.00;99.90
24772;DHT22;12870;52.274;9.754;2024-01-27T05:27:09;5.00;99.90
24772;DHT22;12870;52.274;9.754;2024-01-27T05:29:37;5.10;99.90
24772;DHT22;12870;52.274;9.754;2024-01-27T05:32:02;5.10;99.90
24772;DHT22;12870;52.274;9.754;2024-01-27T05:34:28;5.00;99.90
24772;DHT22;12870;52.274;9.754;2024-01-27T05:36:53;5.10;99.90
24772;DHT22;12870;52.274;9.754;2024-01-27T05:39:19;5.10;99.90
24772;DHT22;12870;52.274;9.754;2024-01-27T05:41:44;5.10;99.90
24772;DHT22;12870;52.274;9.754;2024-01-27T05:44:10;5.10;99.90
24772;DHT22;12870;52.274;9.754;2024-01-27T05:46:36;5.00;99.90
24772;DHT22;12870;52.274;9.754;2024-01-27T05:49:01;5.00;99.90
24772;DHT22;12870;52.274;9.754;2024-01-27T05:51:28;4.90;99.90
24772;DHT22;12870;52.274;9.754;2024-01-27T05:53:55;4.70;99.90
24772;DHT22;12870;52.274;9.754;2024-01-27T05:56:21;4.50;99.90
24772;DHT22;12870;52.274;9.754;2024-01-27T05:58:47;4.30;99.90
24772;DHT22;12870;52.274;9.754;2024-01-27T06:01:12;4.30;99.90
24772;DHT22;12870;52.274;9.754;2024-01-27T06:03:40;4.20;99.90
24772;DHT22;12870;52.274;9.754;2024-01-27T06:06:06;4.20;99.90
24772;DHT22;12870;52.274;9.754;2024-01-27T06:08:31;4.10;99.90
24772;DHT22;12870;52.274;9.754;2024-01-27T06:10:57;4.10;99.90
24772;DHT22;12870;52.274;9.754;2024-01-27T06:13:22;4.10;99.90
24772;DHT22;12870;52.274;9.754;2024-01-27T06:15:48;4.10;99.90
24772;DHT22;12870;52.274;9.754;2024-01-27T06:18:13;4.00;99.90
24772;DHT22;12870;52.274;9.754;2024-01-27T06:20:39;4.00;99.90
24772;DHT22;12870;52.274;9.754;2024-01-27T06:23:05;4.00;99.90
24772;DHT22;12870;52.274;9.754;2024-01-27T06:25:32;4.00;99.90
24772;DHT22;12870;52.274;9.754;2024-01-27T06:27:58;4.00;99.90
24772;DHT22;12870;52.274;9.754;2024-01-27T06:30:23;4.00;99.90
24772;DHT22;12870;52.274;9.754;2024-01-27T06:32:49;3.90;99.90
24772;DHT22;12870;52.274;9.754;2024-01-27T06:35:15;3.90;99.90
24772;DHT22;12870;52.274;9.754;2024-01-27T06:37:41;3.80;99.90
24772;DHT22;12870;52.274;9.754;2024-01-27T06:40:07;3.80;99.90
24772;DHT22;12870;52.274;9.754;2024-01-27T06:42:34;3.80;99.90
24772;DHT22;12870;52.274;9.754;2024-01-27T06:44:59;3.80;99.90
24772;DHT22;12870;52.274;9.754;2024-01-27T06:47:25;3.70;99.90
24772;DHT22;12870;52.274;9.754;2024-01-27T06:49:51;3.70;99.90
24772;DHT22;12870;52.274;9.754;2024-01-27T06:52:16;3.70;99.90
24772;DHT22;12870;52.274;9.754;2024-01-27T06:54:42;3.60;99.90
24772;DHT22;12870;52.274;9.754;2024-01-27T06:57:21;3.70;99.90
24772;DHT22;12870;52.274;9.754;2024-01-27T06:59:48;3.60;99.90
24772;DHT22;12870;52.274;9.754;2024-01-27T07:02:28;3.60;99.90
24772;DHT22;12870;52.274;9.754;2024-01-27T07:04:56;3.70;99.90
24772;DHT22;12870;52.274;9.754;2024-01-27T07:07:28;3.70;99.90
24772;DHT22;12870;52.274;9.754;2024-01-27T07:09:58;3.70;99.90
24772;DHT22;12870;52.274;9.754;2024-01-27T07:12:23;3.70;99.90
24772;DHT22;12870;52.274;9.754;2024-01-27T07:14:49;3.70;99.90
24772;DHT22;12870;52.274;9.754;2024-01-27T07:17:17;3.80;99.90
24772;DHT22;12870;52.274;9.754;2024-01-27T07:19:43;3.70;99.90
24772;DHT22;12870;52.274;9.754;2024-01-27T07:22:09;3.70;99.90
24772;DHT22;12870;52.274;9.754;2024-01-27T07:24:35;3.70;99.90
24772;DHT22;12870;52.274;9.754;2024-01-27T07:27:00;3.70;99.90
24772;DHT22;12870;52.274;9.754;2024-01-27T07:29:27;3.70;99.90
24772;DHT22;12870;52.274;9.754;2024-01-27T07:31:52;3.70;99.90
24772;DHT22;12870;52.274;9.754;2024-01-27T07:34:18;3.70;99.90
24772;DHT22;12870;52.274;9.754;2024-01-27T07:36:44;3.70;99.90
24772;DHT22;12870;52.274;9.754;2024-01-27T07:39:10;3.60;99.90
24772;DHT22;12870;52.274;9.754;2024-01-27T07:41:36;3.70;99.90
24772;DHT22;12870;52.274;9.754;2024-01-27T07:44:11;3.70;99.90
24772;DHT22;12870;52.274;9.754;2024-01-27T07:46:40;3.70;99.90
24772;DHT22;12870;52.274;9.754;2024-01-27T07:49:07;3.70;99.90
24772;DHT22;12870;52.274;9.754;2024-01-27T07:51:33;3.70;99.90
24772;DHT22;12870;52.274;9.754;2024-01-27T07:53:59;3.80;99.90
24772;DHT22;12870;52.274;9.754;2024-01-27T07:56:25;3.80;99.90
24772;DHT22;12870;52.274;9.754;2024-01-27T07:58:51;3.90;99.90
24772;DHT22;12870;52.274;9.754;2024-01-27T08:01:17;4.00;99.90
24772;DHT22;12870;52.274;9.754;2024-01-27T08:03:43;4.10;99.90
24772;DHT22;12870;52.274;9.754;2024-01-27T08:06:28;4.10;99.90
24772;DHT22;12870;52.274;9.754;2024-01-27T08:08:57;4.10;99.90
24772;DHT22;12870;52.274;9.754;2024-01-27T08:11:23;4.20;99.90
24772;DHT22;12870;52.274;9.754;2024-01-27T08:13:50;4.20;99.90
24772;DHT22;12870;52.274;9.754;2024-01-27T08:16:16;4.20;99.90
24772;DHT22;12870;52.274;9.754;2024-01-27T08:18:42;4.30;99.90
24772;DHT22;12870;52.274;9.754;2024-01-27T08:21:09;4.30;99.90
24772;DHT22;12870;52.274;9.754;2024-01-27T08:23:35;4.40;99.90
24772;DHT22;12870;52.274;9.754;2024-01-27T08:26:00;4.50;99.90
24772;DHT22;12870;52.274;9.754;2024-01-27T08:28:26;4.50;99.90
24772;DHT22;12870;52.274;9.754;2024-01-27T08:30:52;4.50;99.90
24772;DHT22;12870;52.274;9.754;2024-01-27T08:33:18;4.50;99.90
24772;DHT22;12870;52.274;9.754;2024-01-27T08:35:46;4.50;99.90
24772;DHT22;12870;52.274;9.754;2024-01-27T08:38:13;4.50;99.90
24772;DHT22;12870;52.274;9.754;2024-01-27T08:40:38;4.60;99.90
24772;DHT22;12870;52.274;9.754;2024-01-27T08:43:04;4.60;99.90
24772;DHT22;12870;52.274;9.754;2024-01-27T08:45:31;4.70;99.90
24772;DHT22;12870;52.274;9.754;2024-01-27T08:47:57;4.60;99.90
24772;DHT22;12870;52.274;9.754;2024-01-27T08:50:22;4.60;99.90
24772;DHT22;12870;52.274;9.754;2024-01-27T08:52:48;4.70;99.90
24772;DHT22;12870;52.274;9.754;2024-01-27T08:55:14;4.70;99.90
24772;DHT22;12870;52.274;9.754;2024-01-27T08:57:40;4.70;99.90
24772;DHT22;12870;52.274;9.754;2024-01-27T09:00:06;4.80;99.90
24772;DHT22;12870;52.274;9.754;2024-01-27T09:02:32;4.80;99.90
24772;DHT22;12870;52.274;9.754;2024-01-27T09:04:58;4.90;99.90
24772;DHT22;12870;52.274;9.754;2024-01-27T09:07:24;4.90;99.90
24772;DHT22;12870;52.274;9.754;2024-01-27T09:09:49;5.00;99.90
24772;DHT22;12870;52.274;9.754;2024-01-27T09:12:15;5.00;99.90
24772;DHT22;12870;52.274;9.754;2024-01-27T09:14:40;5.00;99.90
24772;DHT22;12870;52.274;9.754;2024-01-27T09:17:06;5.10;99.90
24772;DHT22;12870;52.274;9.754;2024-01-27T09:19:31;5.10;99.90
24772;DHT22;12870;52.274;9.754;2024-01-27T09:21:57;5.10;99.90
24772;DHT22;12870;52.274;9.754;2024-01-27T09:24:23;5.20;99.90
24772;DHT22;12870;52.274;9.754;2024-01-27T09:26:48;5.30;99.90
24772;DHT22;12870;52.274;9.754;2024-01-27T09:29:14;5.30;99.90
24772;DHT22;12870;52.274;9.754;2024-01-27T09:31:40;5.40;99.90
24772;DHT22;12870;52.274;9.754;2024-01-27T09:34:05;5.40;99.90
24772;DHT22;12870;52.274;9.754;2024-01-27T09:36:31;5.50;99.90
24772;DHT22;12870;52.274;9.754;2024-01-27T09:38:56;5.50;99.90
24772;DHT22;12870;52.274;9.754;2024-01-27T09:41:22;5.60;99.90
24772;DHT22;12870;52.274;9.754;2024-01-27T09:43:48;5.70;99.90
24772;DHT22;12870;52.274;9.754;2024-01-27T09:46:14;5.70;99.90
24772;DHT22;12870;52.274;9.754;2024-01-27T09:48:45;5.70;99.90
24772;DHT22;12870;52.274;9.754;2024-01-27T09:51:11;5.70;99.90
24772;DHT22;12870;52.274;9.754;2024-01-27T09:53:37;5.70;99.90
24772;DHT22;12870;52.274;9.754;2024-01-27T09:56:03;5.80;99.90
24772;DHT22;12870;52.274;9.754;2024-01-27T09:58:30;6.00;99.90
24772;DHT22;12870;52.274;9.754;2024-01-27T10:01:00;6.10;99.90
24772;DHT22;12870;52.274;9.754;2024-01-27T10:03:27;6.10;99.90
24772;DHT22;12870;52.274;9.754;2024-01-27T10:05:54;6.20;99.90
24772;DHT22;12870;52.274;9.754;2024-01-27T10:08:21;6.10;99.90
24772;DHT22;12870;52.274;9.754;2024-01-27T10:10:47;6.20;99.90
24772;DHT22;12870;52.274;9.754;2024-01-27T10:13:14;6.20;99.90
24772;DHT22;12870;52.274;9.754;2024-01-27T10:15:42;6.10;99.90
24772;DHT22;12870;52.274;9.754;2024-01-27T10:18:08;6.30;99.90
24772;DHT22;12870;52.274;9.754;2024-01-27T10:20:39;6.20;99.90
24772;DHT22;12870;52.274;9.754;2024-01-27T10:23:11;6.20;99.90
24772;DHT22;12870;52.274;9.754;2024-01-27T10:25:38;6.30;99.90
24772;DHT22;12870;52.274;9.754;2024-01-27T10:28:06;6.30;99.90
24772;DHT22;12870;52.274;9.754;2024-01-27T10:30:32;6.30;99.90
24772;DHT22;12870;52.274;9.754;2024-01-27T10:32:57;6.30;99.90
24772;DHT22;12870;52.274;9.754;2024-01-27T10:35:23;6.40;99.90
24772;DHT22;12870;52.274;9.754;2024-01-27T10:37:52;6.50;99.90
24772;DHT22;12870;52.274;9.754;2024-01-27T10:40:18;6.60;99.90
24772;DHT22;12870;52.274;9.754;2024-01-27T10:42:44;6.60;99.90
24772;DHT22;12870;52.274;9.754;2024-01-27T10:45:11;6.70;99.90
24772;DHT22;12870;52.274;9.754;2024-01-27T10:47:38;6.90;99.90
24772;DHT22;12870;52.274;9.754;2024-01-27T10:50:08;7.50;99.90
24772;DHT22;12870;52.274;9.754;2024-01-27T10:52:38;8.10;99.90
24772;DHT22;12870;52.274;9.754;2024-01-27T10:55:05;8.40;99.90
24772;DHT22;12870;52.274;9.754;2024-01-27T10:57:36;9.40;99.90
24772;DHT22;12870;52.274;9.754;2024-01-27T11:00:04;9.70;99.90
24772;DHT22;12870;52.274;9.754;2024-01-27T11:02:35;9.50;99.90
24772;DHT22;12870;52.274;9.754;2024-01-27T11:05:04;9.70;99.90
24772;DHT22;12870;52.274;9.754;2024-01-27T11:07:32;10.10;99.90
24772;DHT22;12870;52.274;9.754;2024-01-27T11:09:58;10.60;99.90
24772;DHT22;12870;52.274;9.754;2024-01-27T11:12:24;10.90;99.90
24772;DHT22;12870;52.274;9.754;2024-01-27T11:14:51;11.60;99.90
24772;DHT22;12870;52.274;9.754;2024-01-27T11:17:17;12.00;99.90
24772;DHT22;12870;52.274;9.754;2024-01-27T11:19:44;12.00;99.90
24772;DHT22;12870;52.274;9.754;2024-01-27T11:22:24;11.70;99.90
24772;DHT22;12870;52.274;9.754;2024-01-27T11:24:50;11.30;99.90
24772;DHT22;12870;52.274;9.754;2024-01-27T11:27:16;11.40;99.90
24772;DHT22;12870;52.274;9.754;2024-01-27T11:29:48;11.60;99.90
24772;DHT22;12870;52.274;9.754;2024-01-27T11:32:15;11.60;99.90
24772;DHT22;12870;52.274;9.754;2024-01-27T11:34:44;12.20;99.90
24772;DHT22;12870;52.274;9.754;2024-01-27T11:37:14;12.70;99.90
24772;DHT22;12870;52.274;9.754;2024-01-27T11:39:40;13.10;99.90
24772;DHT22;12870;52.274;9.754;2024-01-27T11:42:07;13.80;99.90
24772;DHT22;12870;52.274;9.754;2024-01-27T11:44:36;14.10;99.90
24772;DHT22;12870;52.274;9.754;2024-01-27T11:47:02;13.70;99.90
24772;DHT22;12870;52.274;9.754;2024-01-27T11:49:28;13.70;99.90
24772;DHT22;12870;52.274;9.754;2024-01-27T11:51:54;13.70;99.90
24772;DHT22;12870;52.274;9.754;2024-01-27T11:54:19;14.60;99.90
24772;DHT22;12870;52.274;9.754;2024-01-27T11:56:45;15.30;99.90
24772;DHT22;12870;52.274;9.754;2024-01-27T11:59:11;15.20;99.90
24772;DHT22;12870;52.274;9.754;2024-01-27T12:01:37;15.10;99.90
24772;DHT22;12870;52.274;9.754;2024-01-27T12:04:03;14.90;99.90
24772;DHT22;12870;52.274;9.754;2024-01-27T12:06:30;15.30;99.90
24772;DHT22;12870;52.274;9.754;2024-01-27T12:08:56;14.80;99.90
24772;DHT22;12870;52.274;9.754;2024-01-27T12:11:23;14.80;99.90
24772;DHT22;12870;52.274;9.754;2024-01-27T12:13:49;14.70;99.90
24772;DHT22;12870;52.274;9.754;2024-01-27T12:16:15;14.60;99.50
24772;DHT22;12870;52.274;9.754;2024-01-27T12:18:41;14.00;99.90
24772;DHT22;12870;52.274;9.754;2024-01-27T12:21:07;14.20;99.90
24772;DHT22;12870;52.274;9.754;2024-01-27T12:23:32;14.40;99.90
24772;DHT22;12870;52.274;9.754;2024-01-27T12:25:58;14.40;99.90
24772;DHT22;12870;52.274;9.754;2024-01-27T12:28:23;14.80;99.90
24772;DHT22;12870;52.274;9.754;2024-01-27T12:30:53;14.80;99.90
24772;DHT22;12870;52.274;9.754;2024-01-27T12:33:19;14.70;99.90
24772;DHT22;12870;52.274;9.754;2024-01-27T12:35:48;14.40;99.70
24772;DHT22;12870;52.274;9.754;2024-01-27T12:38:14;13.50;99.60
24772;DHT22;12870;52.274;9.754;2024-01-27T12:40:40;13.80;99.90
24772;DHT22;12870;52.274;9.754;2024-01-27T12:43:05;13.70;99.90
24772;DHT22;12870;52.274;9.754;2024-01-27T12:45:31;14.00;99.90
24772;DHT22;12870;52.274;9.754;2024-01-27T12:48:00;13.60;99.90
24772;DHT22;12870;52.274;9.754;2024-01-27T12:50:26;14.00;99.90
24772;DHT22;12870;52.274;9.754;2024-01-27T12:52:51;14.20;99.10
24772;DHT22;12870;52.274;9.754;2024-01-27T12:55:17;13.80;99.90
24772;DHT22;12870;52.274;9.754;2024-01-27T12:57:42;13.30;99.90
24772;DHT22;12870;52.274;9.754;2024-01-27T13:00:08;13.30;99.90
24772;DHT22;12870;52.274;9.754;2024-01-27T13:02:37;13.70;99.90
24772;DHT22;12870;52.274;9.754;2024-01-27T13:05:03;13.60;99.80
24772;DHT22;12870;52.274;9.754;2024-01-27T13:07:29;14.10;99.80
24772;DHT22;12870;52.274;9.754;2024-01-27T13:09:55;14.10;99.10
24772;DHT22;12870;52.274;9.754;2024-01-27T13:12:21;13.60;99.90
24772;DHT22;12870;52.274;9.754;2024-01-27T13:14:47;13.70;99.50
24772;DHT22;12870;52.274;9.754;2024-01-27T13:17:14;13.70;98.90
24772;DHT22;12870;52.274;9.754;2024-01-27T13:19:40;13.60;99.90
24772;DHT22;12870;52.274;9.754;2024-01-27T13:22:06;13.20;99.90
24772;DHT22;12870;52.274;9.754;2024-01-27T13:24:32;13.20;99.80
24772;DHT22;12870;52.274;9.754;2024-01-27T13:26:58;13.10;99.90
24772;DHT22;12870;52.274;9.754;2024-01-27T13:29:23;13.30;99.90
24772;DHT22;12870;52.274;9.754;2024-01-27T13:31:49;14.00;99.50
24772;DHT22;12870;52.274;9.754;2024-01-27T13:34:15;14.00;98.30
24772;DHT22;12870;52.274;9.754;2024-01-27T13:36:41;13.50;98.90
24772;DHT22;12870;52.274;9.754;2024-01-27T13:39:06;13.60;99.20
24772;DHT22;12870;52.274;9.754;2024-01-27T13:41:32;14.30;99.70
24772;DHT22;12870;52.274;9.754;2024-01-27T13:43:57;14.10;98.50
24772;DHT22;12870;52.274;9.754;2024-01-27T13:46:23;14.10;98.90
24772;DHT22;12870;52.274;9.754;2024-01-27T13:48:49;13.80;98.50
24772;DHT22;12870;52.274;9.754;2024-01-27T13:51:15;13.80;98.90
24772;DHT22;12870;52.274;9.754;2024-01-27T13:53:40;14.00;98.20
24772;DHT22;12870;52.274;9.754;2024-01-27T13:56:06;14.10;98.30
24772;DHT22;12870;52.274;9.754;2024-01-27T13:58:32;14.50;98.60
24772;DHT22;12870;52.274;9.754;2024-01-27T14:00:58;13.90;98.90
24772;DHT22;12870;52.274;9.754;2024-01-27T14:03:23;13.50;99.10
24772;DHT22;12870;52.274;9.754;2024-01-27T14:05:49;13.40;98.70
24772;DHT22;12870;52.274;9.754;2024-01-27T14:08:15;13.00;98.60
24772;DHT22;12870;52.274;9.754;2024-01-27T14:10:43;13.10;99.60
24772;DHT22;12870;52.274;9.754;2024-01-27T14:13:09;13.20;98.90
24772;DHT22;12870;52.274;9.754;2024-01-27T14:15:36;13.10;99.20
24772;DHT22;12870;52.274;9.754;2024-01-27T14:18:02;13.00;99.60
24772;DHT22;12870;52.274;9.754;2024-01-27T14:20:29;13.20;99.90
24772;DHT22;12870;52.274;9.754;2024-01-27T14:22:55;12.90;98.90
24772;DHT22;12870;52.274;9.754;2024-01-27T14:25:20;12.90;99.30
24772;DHT22;12870;52.274;9.754;2024-01-27T14:27:46;12.90;99.10
24772;DHT22;12870;52.274;9.754;2024-01-27T14:30:12;12.60;99.70
24772;DHT22;12870;52.274;9.754;2024-01-27T14:32:38;12.60;99.90
24772;DHT22;12870;52.274;9.754;2024-01-27T14:35:04;12.50;99.90
24772;DHT22;12870;52.274;9.754;2024-01-27T14:37:32;12.60;99.70
24772;DHT22;12870;52.274;9.754;2024-01-27T14:39:58;12.60;99.70
24772;DHT22;12870;52.274;9.754;2024-01-27T14:42:23;12.60;99.60
24772;DHT22;12870;52.274;9.754;2024-01-27T14:44:49;13.00;99.50
24772;DHT22;12870;52.274;9.754;2024-01-27T14:47:16;12.60;98.80
24772;DHT22;12870;52.274;9.754;2024-01-27T14:49:41;12.20;99.50
24772;DHT22;12870;52.274;9.754;2024-01-27T14:52:09;11.80;99.90
24772;DHT22;12870;52.274;9.754;2024-01-27T14:54:36;11.30;99.90
24772;DHT22;12870;52.274;9.754;2024-01-27T14:57:02;10.90;99.90
24772;DHT22;12870;52.274;9.754;2024-01-27T14:59:29;10.70;99.90
24772;DHT22;12870;52.274;9.754;2024-01-27T15:01:55;10.30;99.90
24772;DHT22;12870;52.274;9.754;2024-01-27T15:04:23;10.00;99.90
24772;DHT22;12870;52.274;9.754;2024-01-27T15:06:52;9.80;99.90
24772;DHT22;12870;52.274;9.754;2024-01-27T15:09:19;9.70;99.90
24772;DHT22;12870;52.274;9.754;2024-01-27T15:11:44;9.40;99.90
24772;DHT22;12870;52.274;9.754;2024-01-27T15:14:10;9.20;99.90
24772;DHT22;12870;52.274;9.754;2024-01-27T15:16:35;9.10;99.90
24772;DHT22;12870;52.274;9.754;2024-01-27T15:19:01;9.10;99.90
24772;DHT22;12870;52.274;9.754;2024-01-27T15:21:27;9.10;99.90
24772;DHT22;12870;52.274;9.754;2024-01-27T15:23:55;9.10;99.90
24772;DHT22;12870;52.274;9.754;2024-01-27T15:26:21;9.10;99.90
24772;DHT22;12870;52.274;9.754;2024-01-27T15:28:46;9.00;99.90
24772;DHT22;12870;52.274;9.754;2024-01-27T15:31:12;9.00;99.90
24772;DHT22;12870;52.274;9.754;2024-01-27T15:33:38;8.90;99.90
24772;DHT22;12870;52.274;9.754;2024-01-27T15:36:04;8.80;99.90